IW5ELM Weather Reports


Display with metric or nautical units.
time (UTC)temp
F
wind
direction
speed
MPH
gust
MPH
rain 1hr
in
rain 24hr
in
rain mn
in
humidity
%
barometer
mb
20181211111552 55 46 0.0 3.0 0.00 0.00 0.00 10 1009.8
20181211111052 53 45 1.0 4.0 0.00 0.00 0.00 10 1009.9
20181211110552 52 45 2.0 5.0 0.00 0.00 0.00 10 1009.7
20181211110052 52 45 2.0 5.0 0.00 0.00 0.00 10 1009.8
20181211105552 51 46 2.0 6.0 0.00 0.00 0.00 10 1009.8
20181211105052 52 45 2.0 6.0 0.00 0.00 0.00 10 1009.8
20181211104552 51 45 2.0 5.0 0.00 0.00 0.00 10 1009.7
20181211104052 52 46 1.0 5.0 0.00 0.00 0.00 10 1009.9
20181211103552 52 46 1.0 5.0 0.00 0.00 0.00 10 1009.9
20181211103050 52 46 1.0 5.0 0.00 0.00 0.00 10 1009.9
20181211102550 52 46 1.0 4.0 0.00 0.00 0.00 10 1009.9
20181211102050 52 46 1.0 4.0 0.00 0.00 0.00 10 1009.9
20181211101550 52 46 1.0 3.0 0.00 0.00 0.00 10 1009.8
20181211101050 52 45 0.0 3.0 0.00 0.00 0.00 10 1010.0
20181211100550 50 46 0.0 3.0 0.00 0.00 0.00 10 1010.0
20181211100050 50 46 1.0 4.0 0.00 0.00 0.00 10 1010.1
20181211095552 49 45 2.0 6.0 0.00 0.00 0.00 10 1010.2
20181211095052 48 46 3.0 6.0 0.00 0.00 0.00 10 1010.2
20181211094552 49 45 2.0 6.0 0.00 0.00 0.00 10 1010.2
20181211094052 49 45 1.0 4.0 0.00 0.00 0.00 10 1010.0
20181211093552 48 45 2.0 4.0 0.00 0.00 0.00 10 1010.1
20181211093052 49 45 1.0 4.0 0.00 0.00 0.00 10 1010.2
20181211092550 49 46 0.0 3.0 0.00 0.00 0.00 10 1010.1
20181211092050 46 46 1.0 3.0 0.00 0.00 0.00 10 1010.0
20181211091550 46 45 1.0 4.0 0.00 0.00 0.00 10 1010.1
20181211091050 45 46 2.0 4.0 0.00 0.00 0.00 10 1010.1
20181211090550 43 45 3.0 6.0 0.00 0.00 0.00 10 1010.1
20181211090050 43 46 4.0 9.0 0.00 0.00 0.00 10 1010.1
20181211085550 43 46 4.0 9.0 0.00 0.00 0.00 10 1010.0
20181211085050 44 45 2.0 8.0 0.00 0.00 0.00 10 1010.0
20181211084550 44 46 1.0 4.0 0.00 0.00 0.00 10 1009.5
20181211084052 44 45 0.0 3.0 0.00 0.00 0.00 10 1009.6
20181211083552 44 45 0.0 3.0 0.00 0.00 0.00 10 1009.5
20181211083051 42 45 1.0 3.0 0.00 0.00 0.00 10 1009.6
20181211082551 41 46 1.0 3.0 0.00 0.00 0.00 10 1009.5
20181211082051 41 46 2.0 5.0 0.00 0.00 0.00 10 1009.7
20181211081551 40 45 3.0 6.0 0.00 0.00 0.00 10 1009.8
20181211081051 41 45 2.0 6.0 0.00 0.00 0.00 10 1009.9
20181211080551 42 46 1.0 5.0 0.00 0.00 0.00 10 1009.9
20181211080051 42 45 1.0 5.0 0.00 0.00 0.00 10 1009.8
20181211075550 42 46 1.0 3.0 0.00 0.00 0.00 10 1009.7
20181211075050 42 45 2.0 6.0 0.00 0.00 0.00 10 1009.9
20181211074550 43 46 2.0 6.0 0.00 0.00 0.00 10 1009.9
20181211074051 43 45 2.0 6.0 0.00 0.00 0.00 10 1009.9
20181211073550 44 45 2.0 6.0 0.00 0.00 0.00 10 1009.8
20181211073050 43 45 2.0 6.0 0.00 0.00 0.00 10 1009.7
20181211072552 41 46 2.0 6.0 0.00 0.00 0.00 10 1009.5
20181211072052 40 45 2.0 7.0 0.00 0.00 0.00 10 1009.5
20181211071552 40 45 1.0 7.0 0.00 0.00 0.00 10 1009.5
20181211071052 38 45 0.0 5.0 0.00 0.00 0.00 10 1009.5
20181211070552 34 46 0.0 3.0 0.00 0.00 0.00 10 1009.6
20181211070052 34 45 0.0 3.0 0.00 0.00 0.00 10 1009.5
20181211065551 34 45 1.0 5.0 0.00 0.00 0.00 10 1009.5
20181211065051 34 46 1.0 5.0 0.00 0.00 0.00 10 1009.6
20181211064551 34 46 0.0 3.0 0.00 0.00 0.00 10 1009.6
20181211064051 34 0 0.0 0.0 0.00 0.00 0.00 10 1009.4
20181211063602 35 0 0.0 0.0 0.00 0.00 0.00 10 1009.3
20181211063051 35 45 0.0 3.0 0.00 0.00 0.00 10 1009.3
20181211062551 35 45 1.0 6.0 0.00 0.00 0.00 10 1009.4
20181211062050 35 45 1.0 6.0 0.00 0.00 0.00 10 1009.4
20181211061552 36 45 1.0 6.0 0.00 0.00 0.00 10 1009.2
20181211061051 35 45 0.0 6.0 0.00 0.00 0.00 10 1009.3
20181211060551 34 0 0.0 0.0 0.00 0.00 0.00 10 1009.2
20181211060051 34 0 0.0 0.0 0.00 0.00 0.00 10 1009.2
20181211055551 34 0 0.0 0.0 0.00 0.00 0.00 10 1009.2
20181211055051 34 0 0.0 0.0 0.00 0.00 0.00 10 1009.0
20181211054551 34 0 0.0 0.0 0.00 0.00 0.00 10 1009.1
20181211054051 34 0 0.0 0.0 0.00 0.00 0.00 10 1009.1
20181211053550 34 46 0.0 1.0 0.00 0.00 0.00 10 1009.1
20181211053051 34 45 0.0 3.0 0.00 0.00 0.00 10 1009.2
20181211052550 34 45 0.0 3.0 0.00 0.00 0.00 10 1009.1
20181211052050 34 46 0.0 3.0 0.00 0.00 0.00 10 1009.3
20181211051550 34 46 0.0 3.0 0.00 0.00 0.00 10 1009.2
20181211051050 34 45 0.0 3.0 0.00 0.00 0.00 10 1009.3
20181211050550 34 45 0.0 3.0 0.00 0.00 0.00 10 1009.2
20181211050050 34 46 1.0 3.0 0.00 0.00 0.00 10 1009.2
20181211045552 35 46 1.0 3.0 0.00 0.00 0.00 10 1009.2
20181211045052 35 45 1.0 3.0 0.00 0.00 0.00 10 1009.1
20181211044552 34 45 0.0 3.0 0.00 0.00 0.00 10 1009.0
20181211044052 34 0 0.0 0.0 0.00 0.00 0.00 10 1008.9
20181211043552 34 0 0.0 0.0 0.00 0.00 0.00 10 1008.8
20181211043052 34 0 0.0 0.0 0.00 0.00 0.00 10 1008.8
20181211042551 34 45 0.0 1.0 0.00 0.00 0.00 10 1008.9
20181211042051 34 45 0.0 1.0 0.00 0.00 0.00 10 1008.9
20181211041551 34 46 0.0 1.0 0.00 0.00 0.00 10 1009.0
20181211041051 34 0 0.0 0.0 0.00 0.00 0.00 10 1008.9
20181211040551 34 0 0.0 0.0 0.00 0.00 0.00 10 1009.0
20181211040051 34 0 0.0 0.0 0.00 0.00 0.00 10 1009.2
20181211035551 34 0 0.0 0.0 0.00 0.00 0.00 10 1009.2
20181211035052 34 0 0.0 0.0 0.00 0.00 0.00 10 1009.2
20181211034552 34 0 0.0 0.0 0.00 0.00 0.00 10 1009.2
20181211034052 34 0 0.0 0.0 0.00 0.00 0.00 10 1009.2
20181211033551 34 0 0.0 0.0 0.00 0.00 0.00 10 1009.1
20181211033052 34 0 0.0 0.0 0.00 0.00 0.00 10 1009.1
20181211032551 34 0 0.0 0.0 0.00 0.00 0.00 10 1009.0
20181211032051 34 0 0.0 0.0 0.00 0.00 0.00 10 1008.9
20181211031551 34 0 0.0 0.0 0.00 0.00 0.00 10 1008.9
20181211031051 34 0 0.0 0.0 0.00 0.00 0.00 10 1008.9
20181211030551 34 0 0.0 0.0 0.00 0.00 0.00 10 1008.9
20181211030051 34 0 0.0 0.0 0.00 0.00 0.00 10 1009.0
20181211025551 35 0 0.0 0.0 0.00 0.00 0.00 10 1008.9
20181211025051 35 46 0.0 1.0 0.00 0.00 0.00 10 1009.0
20181211024551 35 45 0.0 2.0 0.00 0.00 0.00 10 1009.0
20181211024051 35 45 0.0 3.0 0.00 0.00 0.00 10 1009.0
20181211023551 36 45 1.0 4.0 0.00 0.00 0.00 10 1009.1
20181211023051 36 45 1.0 4.0 0.00 0.00 0.00 10 1009.1
20181211022551 36 45 1.0 6.0 0.00 0.00 0.00 10 1009.0
20181211022051 36 46 2.0 6.0 0.00 0.00 0.00 10 1009.0
20181211021551 36 46 1.0 3.0 0.00 0.00 0.00 10 1009.2
20181211021051 36 46 0.0 3.0 0.00 0.00 0.00 10 1009.1
20181211020551 36 45 0.0 2.0 0.00 0.00 0.00 10 1009.1
20181211020051 36 45 0.0 2.0 0.00 0.00 0.00 10 1009.2
20181211015551 36 45 0.0 3.0 0.00 0.00 0.00 10 1009.2
20181211015051 36 45 0.0 4.0 0.00 0.00 0.00 10 1009.2
20181211014551 37 45 1.0 5.0 0.00 0.00 0.00 10 1009.1
20181211014051 37 46 1.0 5.0 0.00 0.00 0.00 10 1009.1
20181211013551 37 46 1.0 4.0 0.00 0.00 0.00 10 1009.0
20181211013051 37 45 0.0 3.0 0.00 0.00 0.00 10 1008.9
20181211012551 37 46 1.0 3.0 0.00 0.00 0.00 10 1008.9
20181211012051 38 45 1.0 4.0 0.00 0.00 0.00 10 1009.1
20181211011552 38 46 1.0 4.0 0.00 0.00 0.00 10 1009.2
20181211011052 38 45 0.0 4.0 0.00 0.00 0.00 10 1009.2
20181211010551 38 46 0.0 4.0 0.00 0.00 0.00 10 1009.1
20181211010050 38 45 0.0 4.0 0.00 0.00 0.00 10 1009.0
20181211005550 39 45 1.0 3.0 0.00 0.00 0.00 10 1008.8
20181211005050 40 45 1.0 3.0 0.00 0.00 0.00 10 1008.9
20181211004550 40 45 1.0 3.0 0.00 0.00 0.00 10 1009.0
20181211004050 41 45 1.0 3.0 0.00 0.00 0.00 10 1008.7
20181211003550 41 45 0.0 3.0 0.00 0.00 0.00 10 1008.8
20181211003050 41 45 0.0 5.0 0.00 0.00 0.00 10 1008.8
20181211002550 42 46 2.0 6.0 0.00 0.00 0.00 10 1008.9
20181211002050 42 46 3.0 9.0 0.00 0.00 0.00 10 1009.0
20181211001552 43 46 4.0 13.0 0.00 0.00 0.00 10 1009.0
20181211001052 42 45 3.0 13.0 0.00 0.00 0.00 10 1008.9
20181211000552 43 46 3.0 8.0 0.00 0.00 0.00 10 1008.9
20181211000052 43 46 2.0 8.0 0.00 0.00 0.00 10 1009.1
20181210235552 43 46 2.0 8.0 0.00 0.00 0.00 10 1009.0
20181210235052 43 46 2.0 9.0 0.00 0.00 0.00 10 1009.0
20181210234552 43 45 3.0 9.0 0.00 0.00 0.00 10 1009.1
20181210234050 43 45 4.0 10.0 0.00 0.00 0.00 10 1009.1
20181210233550 43 45 2.0 10.0 0.00 0.00 0.00 10 1009.3
20181210233050 42 45 0.0 5.0 0.00 0.00 0.00 10 1009.4
20181210232550 42 46 1.0 9.0 0.00 0.00 0.00 10 1009.2
20181210232050 44 46 5.0 13.0 0.00 0.00 0.00 10 1009.3
20181210231550 45 45 7.0 14.0 0.00 0.00 0.00 10 1009.0
20181210231050 44 45 5.0 14.0 0.00 0.00 0.00 10 1009.1
20181210230550 44 45 3.0 9.0 0.00 0.00 0.00 10 1009.2
20181210230050 45 45 5.0 14.0 0.00 0.00 0.00 10 1009.1
20181210225552 45 46 7.0 15.0 0.00 0.00 0.00 10 1009.1
20181210225052 45 45 6.0 15.0 0.00 0.00 0.00 10 1009.0
20181210224552 45 45 6.0 14.0 0.00 0.00 0.00 10 1009.0
20181210224052 45 45 5.0 14.0 0.00 0.00 0.00 10 1008.9
20181210223550 45 46 5.0 15.0 0.00 0.00 0.00 10 1009.1
20181210223050 45 45 4.0 15.0 0.00 0.00 0.00 10 1008.9
20181210222550 45 45 4.0 10.0 0.00 0.00 0.00 10 1009.0
20181210222050 45 45 5.0 12.0 0.00 0.00 0.00 10 1009.0
20181210221550 45 45 6.0 12.0 0.00 0.00 0.00 10 1008.9
20181210221050 45 45 5.0 10.0 0.00 0.00 0.00 10 1008.9
20181210220550 45 46 5.0 10.0 0.00 0.00 0.00 10 1009.0
20181210220050 45 45 5.0 10.0 0.00 0.00 0.00 10 1008.9
20181210215550 45 45 5.0 12.0 0.00 0.00 0.00 10 1008.9
20181210215052 46 45 6.0 12.0 0.00 0.00 0.00 10 1008.8
20181210214552 45 45 6.0 12.0 0.00 0.00 0.00 10 1008.8
20181210214052 46 45 5.0 12.0 0.00 0.00 0.00 10 1009.0
20181210213552 46 46 5.0 12.0 0.00 0.00 0.00 10 1008.9
20181210213052 46 46 5.0 11.0 0.00 0.00 0.00 10 1008.9
20181210212551 45 45 5.0 12.0 0.00 0.00 0.00 10 1008.7
20181210212051 45 46 5.0 12.0 0.00 0.00 0.00 10 1008.7
20181210211551 45 46 4.0 11.0 0.00 0.00 0.00 10 1008.8
20181210211051 45 46 4.0 11.0 0.00 0.00 0.00 10 1008.9
20181210205841 45 46 3.0 8.0 0.00 0.00 0.00 10 1008.7
20181210205341 45 46 3.0 8.0 0.00 0.00 0.00 10 1008.8
20181210204841 45 45 2.0 7.0 0.00 0.00 0.00 10 1008.9
20181210204342 45 46 3.0 9.0 0.00 0.00 0.00 10 1008.9
20181210203841 45 46 4.0 9.0 0.00 0.00 0.00 10 1008.9
20181210203341 45 45 4.0 9.0 0.00 0.00 0.00 10 1008.9
20181210202841 45 45 4.0 9.0 0.00 0.00 0.00 10 1008.9
20181210202341 45 46 4.0 9.0 0.00 0.00 0.00 10 1009.0
20181210201840 45 45 3.0 9.0 0.00 0.00 0.00 10 1008.9
20181210201340 46 46 3.0 9.0 0.00 0.00 0.00 10 1008.9
20181210200840 46 45 4.0 11.0 0.00 0.00 0.00 10 1009.0
20181210200340 46 46 4.0 12.0 0.00 0.00 0.00 10 1008.9
20181210195840 46 46 4.0 12.0 0.00 0.00 0.00 10 1008.8
20181210195340 46 46 5.0 11.0 0.00 0.00 0.00 10 1008.9
20181210194840 46 46 5.0 11.0 0.00 0.00 0.00 10 1008.9
20181210194340 46 45 5.0 12.0 0.00 0.00 0.00 10 1008.8
20181210193842 46 45 6.0 12.0 0.00 0.00 0.00 10 1008.8
20181210193341 46 46 6.0 14.0 0.00 0.00 0.00 10 1008.7
20181210192841 46 45 6.0 14.0 0.00 0.00 0.00 10 1008.8
20181210192341 46 46 5.0 11.0 0.00 0.00 0.00 10 1008.7
20181210191841 46 45 5.0 11.0 0.00 0.00 0.00 10 1008.8
20181210191341 46 46 5.0 13.0 0.00 0.00 0.00 10 1008.7
20181210190841 46 46 4.0 13.0 0.00 0.00 0.00 10 1008.7
20181210190340 47 46 4.0 13.0 0.00 0.00 0.00 10 1008.6
20181210185840 47 46 4.0 12.0 0.00 0.00 0.00 10 1008.7
20181210185340 46 46 4.0 11.0 0.00 0.00 0.00 10 1008.6
20181210184840 46 46 5.0 12.0 0.00 0.00 0.00 10 1008.5
20181210184116 47 45 4.0 11.0 0.00 0.00 0.00 10 1008.3
20181210183616 47 45 5.0 11.0 0.00 0.00 0.00 10 1008.4
20181210183116 47 46 4.0 11.0 0.00 0.00 0.00 10 1008.4
20181210182616 47 45 4.0 9.0 0.00 0.00 0.00 10 1008.3
20181210182116 47 46 4.0 9.0 0.00 0.00 0.00 10 1008.4
20181210181616 47 46 5.0 9.0 0.00 0.00 0.00 10 1008.5
20181210181116 47 45 4.0 9.0 0.00 0.00 0.00 10 1008.2
20181210180616 47 46 3.0 10.0 0.00 0.00 0.00 10 1008.2
20181210180116 48 46 3.0 12.0 0.00 0.00 0.00 10 1008.1
20181210175616 48 46 4.0 12.0 0.00 0.00 0.00 10 1008.2
20181210175115 48 46 4.0 12.0 0.00 0.00 0.00 10 1008.1
20181210174616 49 46 4.0 12.0 0.00 0.00 0.00 10 1008.1
20181210174116 49 45 4.0 12.0 0.00 0.00 0.00 10 1008.0
20181210173615 49 45 5.0 12.0 0.00 0.00 0.00 10 1007.8
20181210173115 49 45 4.0 12.0 0.00 0.00 0.00 10 1007.8
20181210172615 49 46 4.0 9.0 0.00 0.00 0.00 10 1007.7
20181210172117 49 46 3.0 9.0 0.00 0.00 0.00 10 1007.6
20181210171617 49 46 2.0 9.0 0.00 0.00 0.00 10 1007.6
20181210171117 50 45 3.0 12.0 0.00 0.00 0.00 10 1007.6
20181210170617 50 46 4.0 12.0 0.00 0.00 0.00 10 1007.5
20181210170117 49 45 4.0 11.0 0.00 0.00 0.00 10 1007.6
20181210165617 49 46 3.0 9.0 0.00 0.00 0.00 10 1007.5
20181210165117 49 46 2.0 7.0 0.00 0.00 0.00 10 1007.4
20181210164616 49 45 2.0 6.0 0.00 0.00 0.00 10 1007.4
20181210164116 49 45 3.0 7.0 0.00 0.00 0.00 10 1007.3
20181210163616 49 46 3.0 7.0 0.00 0.00 0.00 10 1007.4
20181210163116 50 45 2.0 7.0 0.00 0.00 0.00 10 1007.4
20181210162616 50 45 2.0 8.0 0.00 0.00 0.00 10 1007.3
20181210162116 51 46 2.0 8.0 0.00 0.00 0.00 10 1007.4
20181210161616 51 45 2.0 7.0 0.00 0.00 0.00 10 1007.2
20181210161116 52 45 2.0 5.0 0.00 0.00 0.00 10 1007.4
20181210160616 52 45 2.0 6.0 0.00 0.00 0.00 10 1007.2
20181210160115 53 46 2.0 7.0 0.00 0.00 0.00 10 1007.2
20181210155615 54 46 1.0 7.0 0.00 0.00 0.00 10 1007.2
20181210155117 55 45 0.0 3.0 0.00 0.00 0.00 10 1007.0
20181210154617 56 46 0.0 3.0 0.00 0.00 0.00 10 1007.1
20181210154117 58 46 1.0 3.0 0.00 0.00 0.00 10 1007.0
20181210153617 59 45 0.0 3.0 0.00 0.00 0.00 10 1007.0
20181210153117 60 46 0.0 6.0 0.00 0.00 0.00 10 1007.1
20181210152617 60 45 1.0 6.0 0.00 0.00 0.00 10 1006.9
20181210152116 62 46 2.0 7.0 0.00 0.00 0.00 10 1007.0
20181210151616 64 46 3.0 7.0 0.00 0.00 0.00 10 1006.8
20181210151116 64 45 4.0 13.0 0.00 0.00 0.00 10 1006.6
20181210150616 64 45 4.0 13.0 0.00 0.00 0.00 10 1006.6
20181210150116 64 46 3.0 11.0 0.00 0.00 0.00 10 1006.6
20181210145616 65 46 4.0 13.0 0.00 0.00 0.00 10 1006.5
20181210145116 65 46 5.0 13.0 0.00 0.00 0.00 10 1006.3
20181210144616 65 45 4.0 13.0 0.00 0.00 0.00 10 1006.4
20181210144116 65 46 4.0 12.0 0.00 0.00 0.00 10 1006.4
20181210143617 66 46 3.0 12.0 0.00 0.00 0.00 10 1006.5
20181210143117 66 45 3.0 9.0 0.00 0.00 0.00 10 1006.6
20181210142617 65 46 3.0 9.0 0.00 0.00 0.00 10 1006.7
20181210142116 65 46 2.0 9.0 0.00 0.00 0.00 10 1006.5
20181210141616 65 45 0.0 4.0 0.00 0.00 0.00 10 1006.3
20181210141115 65 45 0.0 5.0 0.00 0.00 0.00 10 1006.4
20181210140615 65 45 1.0 5.0 0.00 0.00 0.00 10 1006.4
20181210140115 64 45 2.0 6.0 0.00 0.00 0.00 10 1006.4
20181210135615 64 46 2.0 6.0 0.00 0.00 0.00 10 1006.2
20181210135115 64 45 3.0 6.0 0.00 0.00 0.00 10 1006.3
20181210134615 64 46 3.0 6.0 0.00 0.00 0.00 10 1006.1
20181210134115 65 45 2.0 6.0 0.00 0.00 0.00 10 1006.2
20181210133616 65 45 1.0 6.0 0.00 0.00 0.00 10 1006.2
20181210133116 64 46 2.0 6.0 0.00 0.00 0.00 10 1006.3
20181210132616 65 45 2.0 6.0 0.00 0.00 0.00 10 1006.0
20181210132116 64 45 2.0 7.0 0.00 0.00 0.00 10 1006.3
20181210131616 65 46 2.0 7.0 0.00 0.00 0.00 10 1006.3
20181210131116 64 46 2.0 7.0 0.00 0.00 0.00 10 1006.2
20181210130616 64 45 2.0 7.0 0.00 0.00 0.00 10 1006.2
20181210130116 64 46 3.0 9.0 0.00 0.00 0.00 10 1006.3
20181210125616 64 46 2.0 9.0 0.00 0.00 0.00 10 1006.3
20181210125116 64 45 2.0 6.0 0.00 0.00 0.00 10 1006.2
20181210124616 63 46 3.0 8.0 0.00 0.00 0.00 10 1006.2
20181210124117 63 46 4.0 10.0 0.00 0.00 0.00 10 1006.3
20181210123616 63 46 4.0 10.0 0.00 0.00 0.00 10 1006.2
20181210123116 64 45 3.0 9.0 0.00 0.00 0.00 10 1006.3
20181210122617 64 46 3.0 8.0 0.00 0.00 0.00 10 1006.3
20181210122116 64 46 3.0 8.0 0.00 0.00 0.00 10 1006.2
20181210121616 65 45 2.0 6.0 0.00 0.00 0.00 10 1006.5
20181210121116 64 45 1.0 3.0 0.00 0.00 0.00 10 1006.3
20181210120616 64 46 1.0 4.0 0.00 0.00 0.00 10 1006.5
20181210120116 63 46 2.0 5.0 0.00 0.00 0.00 10 1006.4
20181210115616 63 45 2.0 5.0 0.00 0.00 0.00 10 1006.4
20181210115116 63 46 2.0 5.0 0.00 0.00 0.00 10 1006.2
20181210114616 64 46 1.0 4.0 0.00 0.00 0.00 10 1006.3
20181210114116 63 45 0.0 3.0 0.00 0.00 0.00 10 1006.4
20181210113616 63 45 0.0 2.0 0.00 0.00 0.00 10 1006.4
20181210113116 61 46 1.0 4.0 0.00 0.00 0.00 10 1006.5
20181210112616 60 45 2.0 6.0 0.00 0.00 0.00 10 1006.5
20181210112115 59 46 2.0 6.0 0.00 0.00 0.00 10 1006.6